CPX789 Details

Departure: Changi International Airport (WSSS)
Arrival: Incheon International Airport (RKSI)
Route: TOMAN2A TOMAN L625 MEVIN B462 MJC IKEMA Y62 YURIX Y27 RUSAR Y579 CJU B576 OLMEN OLMEN1P


Current Weather Information
WSSS 232230Z 16005KT 130V230 9999 FEW020TCU SCT350 29/25 Q1010 NOSIG
RKSI 232230Z 14006KT 5000 HZ NSC 19/13 Q1011 NOSIG